Bookmark and Share
Track history (hours):
 

Finnhawk

Last reported at 2014-Apr-22 03:19 UTC. Time now 2014-Apr-23 13:02 UTC.
Position N 59°34' E 021°06'.

Length 163 m; draft 5.5 m.

Type: Ship. MMSI: 230007000.

NotesDate/timePositionNaut miles runAvg speedWind from/ knotsBaromVisibWave heightAir tempDewpointWater temp
2014-Apr-22 03:19N 59°34' E 021°06'1619.6
2014-Apr-22 02:32N 59°32' E 021°37'2119.5
2014-Apr-22 01:27N 59°33' E 022°18'1819.7
2014-Apr-22 00:33N 59°37' E 022°53'2019.8
2014-Apr-21 23:33N 59°41' E 023°30'2019.8
2014-Apr-21 22:33N 59°47' E 024°08'2019.8
2014-Apr-21 21:34N 59°53' E 024°46'24 6.0
2014-Apr-21 17:32N 60°13' E 025°12'0 0.0
2014-Apr-21 15:20N 60°13' E 025°12'1 1.1
2014-Apr-21 14:33N 60°12' E 025°13'1616.0
2014-Apr-21 13:33N 59°57' E 025°03'1818.2
2014-Apr-21 12:33N 59°45' E 024°36'1919.1
2014-Apr-21 11:33N 59°40' E 023°59'1919.3
2014-Apr-21 10:33N 59°35' E 023°22'29418.4
2014-Apr-20 18:32N 56°07' E 016°50'1818.2
2014-Apr-20 17:34N 55°57' E 016°23'2018.4
2014-Apr-20 16:28N 55°47' E 015°52'1718.4
2014-Apr-20 15:33N 55°39' E 015°26'1818.3
2014-Apr-20 14:33N 55°30' E 014°59'1818.2
2014-Apr-20 13:33N 55°19' E 014°33'1716.9
2014-Apr-20 12:33N 55°10' E 014°07'1817.7
2014-Apr-20 11:33N 55°12' E 013°36'1818.2
2014-Apr-20 10:33N 55°14' E 013°04'1616.3
2014-Apr-20 09:34N 55°20' E 012°38'1515.4
2014-Apr-20 08:34N 55°35' E 012°42'1413.6
2014-Apr-20 07:34N 55°49' E 012°42'1716.8
2014-Apr-20 06:32N 56°06' E 012°34'1817.9
2014-Apr-20 05:32N 56°16' E 012°08'1818.2
2014-Apr-20 04:34N 56°32' E 011°56'1919.1
2014-Apr-20 03:33N 56°51' E 011°47'1918.9
2014-Apr-20 02:34N 57°09' E 011°36'1918.8
2014-Apr-20 01:34N 57°26' E 011°24'1919.2
2014-Apr-20 00:34N 57°40' E 010°59'1717.3
2014-Apr-19 23:33N 57°45' E 010°29'5618.4
2014-Apr-19 20:30N 57°20' E 008°55'11318.6
2014-Apr-19 14:26N 55°49' E 006°53'11518.8
2014-Apr-19 08:19N 54°11' E 005°07'1418.8
2014-Apr-19 07:34N 53°59' E 004°55'1919.1
2014-Apr-19 06:33N 53°40' E 004°49'3718.7
2014-Apr-19 04:33N 53°05' E 004°28'1818.1
2014-Apr-19 03:34N 52°49' E 004°14'1817.6
2014-Apr-19 02:33N 52°36' E 003°54'5016.6
2014-Apr-18 23:33N 51°52' E 003°19'10 9.7
2014-Apr-18 22:30N 51°42' E 003°13'1313.7
2014-Apr-18 21:33N 51°32' E 003°26'1413.6
2014-Apr-18 20:33N 51°23' E 003°43'1514.6
2014-Apr-18 19:34N 51°22' E 004°06'9 9.3
2014-Apr-18 18:34N 51°16' E 004°17'0 0.3
2014-Apr-18 17:34N 51°16' E 004°17'2 2.4
2014-Apr-18 16:32N 51°17' E 004°13'0 0.0
2014-Apr-18 15:32N 51°17' E 004°13'0 0.0
2014-Apr-18 14:32N 51°17' E 004°13'0 0.0
2014-Apr-18 13:32N 51°17' E 004°13'0 0.0
2014-Apr-18 12:29N 51°17' E 004°13'0 0.0
2014-Apr-18 11:32N 51°17' E 004°13'0 0.0
2014-Apr-18 10:32N 51°17' E 004°13'0 0.0
2014-Apr-18 09:32N 51°17' E 004°13'1 0.5
2014-Apr-18 08:33N 51°16' E 004°14'2 1.8
2014-Apr-18 07:33N 51°16' E 004°17'1 0.5
2014-Apr-18 06:34N 51°16' E 004°17'4 4.1
2014-Apr-18 05:34N 51°20' E 004°16'6 6.2
2014-Apr-18 04:33N 51°22' E 004°07'6 6.2
2014-Apr-18 03:33N 51°24' E 003°57'9 9.4
2014-Apr-18 02:33N 51°25' E 003°42'1110.8
2014-Apr-18 01:34N 51°30' E 003°27'1414.1
2014-Apr-18 00:33N 51°43' E 003°16'1915.5
2014-Apr-17 23:17N 52°02' E 003°21'1520.2
2014-Apr-17 22:33N 52°16' E 003°28'2019.7
2014-Apr-17 21:34N 52°24' E 003°58'1918.7
2014-Apr-17 20:33N 52°29' E 004°27'6 5.6
2014-Apr-17 19:33N 52°28' E 004°37'6 6.1
2014-Apr-17 18:34N 52°26' E 004°46'3 2.9
2014-Apr-17 17:31N 52°24' E 004°50'0 0.0
2014-Apr-17 16:31N 52°24' E 004°50'0 0.0
2014-Apr-17 15:31N 52°24' E 004°50'0 0.0
2014-Apr-17 14:31N 52°24' E 004°50'0 0.0
2014-Apr-17 13:31N 52°24' E 004°50'0 0.0
2014-Apr-17 12:31N 52°24' E 004°50'0 0.0
2014-Apr-17 11:33N 52°24' E 004°50'5 5.3
2014-Apr-17 10:33N 52°26' E 004°42'5 4.7
2014-Apr-17 09:34N 52°28' E 004°35'4 3.8
2014-Apr-17 08:33N 52°28' E 004°29'9 9.3
2014-Apr-17 07:33N 52°29' E 004°14'1414.5
2014-Apr-17 06:33N 52°28' E 003°50'1515.3
2014-Apr-17 05:34N 52°32' E 003°25'1515.2
2014-Apr-17 04:33N 52°35' E 003°01'1919.2
2014-Apr-17 03:33N 52°39' E 002°30'1818.1
2014-Apr-17 02:33N 52°45' E 002°02'1716.9
2014-Apr-17 01:33N 52°53' E 001°37'1716.7
2014-Apr-17 00:33N 53°00' E 001°12'3316.6
2014-Apr-16 22:33N 53°24' E 000°34'1514.7
2014-Apr-16 21:33N 53°33' E 000°14'1716.7
2014-Apr-16 20:33N 53°39' W 000°12'6 5.6
2014-Apr-16 19:34N 53°44' W 000°16'0 0.1
2014-Apr-16 18:22N 53°44' W 000°16'0 0.0
2014-Apr-16 17:28N 53°44' W 000°16'0 0.0
2014-Apr-16 16:28N 53°44' W 000°16'0 0.0
2014-Apr-16 15:25N 53°44' W 000°16'0 0.0
2014-Apr-16 14:13N 53°44' W 000°16'0 0.0
2014-Apr-16 13:31N 53°44' W 000°16'0 0.0
2014-Apr-16 12:28N 53°44' W 000°16'0 0.0
2014-Apr-16 11:28N 53°44' W 000°16'0 0.0
2014-Apr-16 10:31N 53°44' W 000°16'0 0.0
2014-Apr-16 09:31N 53°44' W 000°16'0 0.0
2014-Apr-16 08:31N 53°44' W 000°16'0 0.3
2014-Apr-16 07:33N 53°44' W 000°16'4 3.8
2014-Apr-16 06:33N 53°41' W 000°13'3 2.9
2014-Apr-16 05:21N 53°38' W 000°12'0 0.0
2014-Apr-16 04:24N 53°38' W 000°12'0 0.0
2014-Apr-16 03:28N 53°38' W 000°12'0 0.0
2014-Apr-16 02:34N 53°38' W 000°12'1 0.5
2014-Apr-16 01:33N 53°38' W 000°11'2 1.7
2014-Apr-16 00:33N 53°38' W 000°08'1413.8
2014-Apr-15 23:33N 53°33' E 000°14'1110.6
2014-Apr-15 22:34N 53°41' E 000°25'1110.8
2014-Apr-15 21:33N 53°46' E 000°42'1111.6
2014-Apr-15 20:34N 53°52' E 000°59'1414.3
2014-Apr-15 19:34N 53°54' E 001°23'21013.1
2014-Apr-15 03:34N 55°16' E 006°55'9 8.9
2014-Apr-15 02:34N 55°25' E 007°00'9 8.6
2014-Apr-15 01:34N 55°33' E 007°05'9 8.7
2014-Apr-15 00:33N 55°41' E 007°09'17012.2
2014-Apr-14 10:34N 57°48' E 010°37'1616.3
2014-Apr-14 09:34N 57°40' E 011°03'1817.7
2014-Apr-14 08:34N 57°28' E 011°27'1818.4
2014-Apr-14 07:33N 57°10' E 011°38'2019.1
2014-Apr-14 06:31N 56°52' E 011°50'1818.0
2014-Apr-14 05:30N 56°34' E 011°59'10815.5
2014-Apr-13 22:33N 55°14' E 014°07'1616.2
2014-Apr-13 21:33N 55°24' E 014°30'1817.9
2014-Apr-13 20:33N 55°34' E 014°55'1818.1
2014-Apr-13 19:33N 55°43' E 015°23'1917.9
2014-Apr-13 18:31N 55°52' E 015°52'1717.7
2014-Apr-13 17:32N 56°02' E 016°18'30117.3
2014-Apr-13 00:09N 59°34' E 022°59'1017.5
2014-Apr-12 23:33N 59°38' E 023°18'2517.6
2014-Apr-12 22:09N 59°46' E 024°04'1117.8
2014-Apr-12 21:33N 59°49' E 024°24'34 4.8
2014-Apr-12 14:32N 60°13' E 025°12'0 0.0
2014-Apr-12 07:23N 60°13' E 025°12'0 0.0
2014-Apr-12 04:20N 60°13' E 025°12'4 5.7
2014-Apr-12 03:33N 60°09' E 025°12'  

Dump ship's entire track history

sailing weather and tide predictions

Finnhawk — OJNL — position and weather